Terminal Aerodrome Forecast
Issued by NWS

Home | Current Version | Previous Version | Text Only | Print | Product List | Glossary On
Versions: 1 2 3 4 5 6 7 8 9 10 11 12 13 14 15 16 17 18 19 20 21 22 23
000
FTUS43 KIND 302000 AAA
TAFLAF
TAF AMD
KLAF 302030Z 3021/3118 VRB05KT P6SM VCTS SCT025CB BKN040
      TEMPO 3021/3101 22015G25KT 2SM TSRA BKN025CB
     FM310100 01009KT 5SM BR VCTS BKN015CB OVC025
      TEMPO 3101/3105 2SM RA BKN015
     FM310600 05013KT 3SM BR OVC007
     FM311000 03014KT 3SM BR OVC007
     FM311500 04012G20KT P6SM OVC007=

USA.gov is the U.S. government's official web portal to all federal, state and local government web resources and services.